createdAt,value
2023-01-30T00:02:01.158Z,-1.31
2023-01-30T00:04:31.521Z,-1.34
2023-01-30T00:07:01.959Z,-1.29
2023-01-30T00:09:32.244Z,-1.28
2023-01-30T00:12:02.624Z,-1.25
2023-01-30T00:14:35.709Z,-1.23
2023-01-30T00:17:05.967Z,-1.15
2023-01-30T00:19:36.377Z,-1.16
2023-01-30T00:22:06.654Z,-1.19
2023-01-30T00:24:37.284Z,-1.10
2023-01-30T00:27:07.814Z,-0.95
2023-01-30T00:29:43.239Z,-1.02
2023-01-30T00:32:14.589Z,-0.95
2023-01-30T00:34:44.898Z,-0.88
2023-01-30T00:37:15.232Z,-0.88
2023-01-30T00:39:45.523Z,-0.84
2023-01-30T00:42:28.304Z,-0.88
2023-01-30T00:45:19.562Z,-0.93
2023-01-30T00:47:51.653Z,-0.94
2023-01-30T00:50:22.460Z,-0.92
2023-01-30T00:52:52.803Z,-0.90
2023-01-30T00:55:23.227Z,-0.81
2023-01-30T00:57:53.608Z,-0.76
2023-01-30T01:00:26.588Z,-0.73
2023-01-30T01:02:56.950Z,-0.79
2023-01-30T01:05:27.357Z,-0.76
2023-01-30T01:07:57.719Z,-0.75
2023-01-30T01:10:28.102Z,-0.71
2023-01-30T01:12:58.389Z,-0.68
2023-01-30T01:15:31.639Z,-0.74
2023-01-30T01:18:03.495Z,-0.78
2023-01-30T01:20:34.321Z,-0.80
2023-01-30T01:23:06.451Z,-0.78
2023-01-30T01:25:36.741Z,-0.84
2023-01-30T01:28:07.803Z,-0.83
2023-01-30T01:30:41.349Z,-0.86
2023-01-30T01:33:14.145Z,-0.88
2023-01-30T01:35:45.048Z,-0.92
2023-01-30T01:38:15.408Z,-0.88
2023-01-30T01:41:01.906Z,-0.84
2023-01-30T01:43:35.912Z,-0.86
2023-01-30T01:46:14.845Z,-0.88
2023-01-30T01:48:50.244Z,-0.73
2023-01-30T01:51:25.619Z,-0.74
2023-01-30T01:54:00.988Z,-0.76
2023-01-30T01:56:32.716Z,-0.77
2023-01-30T01:59:09.156Z,-0.71
2023-01-30T02:01:42.232Z,-0.68
2023-01-30T02:04:35.147Z,-0.58
2023-01-30T02:07:05.712Z,-0.59
2023-01-30T02:09:36.247Z,-0.61
2023-01-30T02:12:08.631Z,-0.64
2023-01-30T02:14:40.709Z,-0.60
2023-01-30T02:17:13.707Z,-0.57
2023-01-30T02:19:54.699Z,-0.46
2023-01-30T02:22:59.567Z,-0.45
2023-01-30T02:25:56.644Z,-0.37
2023-01-30T02:29:34.102Z,-0.29
2023-01-30T02:32:14.105Z,-0.20
2023-01-30T02:34:53.599Z,-0.19
2023-01-30T02:37:39.796Z,-0.12
2023-01-30T02:40:32.843Z,-0.01
2023-01-30T02:43:11.665Z,0.03
2023-01-30T02:45:53.653Z,0.01
2023-01-30T02:48:33.655Z,0.00
2023-01-30T02:51:08.581Z,0.05
2023-01-30T02:53:40.743Z,0.08
2023-01-30T02:56:11.516Z,0.10
2023-01-30T02:58:46.005Z,0.14
2023-01-30T03:02:00.400Z,0.21
2023-01-30T03:04:55.651Z,0.19
2023-01-30T03:07:40.371Z,0.31
2023-01-30T03:10:20.161Z,0.35
2023-01-30T03:13:06.055Z,0.38
2023-01-30T03:15:43.952Z,0.38
2023-01-30T03:18:14.522Z,0.40
2023-01-30T03:20:47.826Z,0.39
2023-01-30T03:23:18.223Z,0.41
2023-01-30T03:25:50.922Z,0.40
2023-01-30T03:28:24.398Z,0.39
2023-01-30T03:30:54.897Z,0.43
2023-01-30T03:33:25.304Z,0.46
2023-01-30T03:35:58.743Z,0.50
2023-01-30T03:38:29.169Z,0.56
2023-01-30T03:40:59.577Z,0.55
2023-01-30T03:43:30.249Z,0.52
2023-01-30T03:46:00.679Z,0.53
2023-01-30T03:48:32.099Z,0.55
2023-01-30T03:51:05.055Z,0.55
2023-01-30T03:53:35.378Z,0.52
2023-01-30T03:56:05.833Z,0.49
2023-01-30T03:58:38.459Z,0.47
2023-01-30T04:01:20.249Z,0.48
2023-01-30T04:03:51.207Z,0.54
2023-01-30T04:06:24.388Z,0.54
2023-01-30T04:08:56.305Z,0.59
2023-01-30T04:11:50.468Z,0.67
2023-01-30T04:14:21.872Z,0.66
2023-01-30T04:17:18.251Z,0.69
2023-01-30T04:20:11.095Z,0.71
2023-01-30T04:22:48.118Z,0.77
2023-01-30T04:25:20.532Z,0.77
2023-01-30T04:27:51.156Z,0.79
2023-01-30T04:30:25.223Z,0.79
2023-01-30T04:33:02.409Z,0.85
2023-01-30T04:35:32.726Z,0.89
2023-01-30T04:38:05.822Z,0.97
2023-01-30T04:40:36.181Z,0.96
2023-01-30T04:43:06.589Z,0.98
2023-01-30T04:45:39.338Z,0.99
2023-01-30T04:48:09.745Z,0.99
2023-01-30T04:50:40.268Z,1.05
2023-01-30T04:53:13.780Z,1.07
2023-01-30T04:55:44.149Z,1.09
2023-01-30T04:58:14.580Z,1.12
2023-01-30T05:00:44.987Z,1.12
2023-01-30T05:03:15.407Z,1.12
2023-01-30T05:05:46.339Z,1.21
2023-01-30T05:08:19.531Z,1.20
2023-01-30T05:10:49.767Z,1.20
2023-01-30T05:13:20.046Z,1.24
2023-01-30T05:15:50.450Z,1.17
2023-01-30T05:18:20.752Z,1.19
2023-01-30T05:20:51.080Z,1.19
2023-01-30T05:23:23.984Z,1.21
2023-01-30T05:25:54.256Z,1.17
2023-01-30T05:28:24.787Z,1.19
2023-01-30T05:30:55.242Z,1.27
2023-01-30T05:33:25.547Z,1.24
2023-01-30T05:35:55.820Z,1.25
2023-01-30T05:38:29.921Z,1.23
2023-01-30T05:41:03.977Z,1.23
2023-01-30T05:43:35.443Z,1.35
2023-01-30T05:46:08.839Z,1.35
2023-01-30T05:48:39.214Z,1.37
2023-01-30T05:51:10.288Z,1.36
2023-01-30T05:53:43.314Z,1.41
2023-01-30T05:56:13.594Z,1.45
2023-01-30T05:58:43.868Z,1.39
2023-01-30T06:01:16.162Z,1.38
2023-01-30T06:03:46.498Z,1.42
2023-01-30T06:06:16.937Z,1.40
2023-01-30T06:08:50.175Z,1.41
2023-01-30T06:11:20.832Z,1.43
2023-01-30T06:13:51.201Z,1.46
2023-01-30T06:16:22.588Z,1.47
2023-01-30T06:18:52.901Z,1.43
2023-01-30T06:21:23.326Z,1.42
2023-01-30T06:23:56.205Z,1.43
2023-01-30T06:26:26.563Z,1.45
2023-01-30T06:28:56.863Z,1.50
2023-01-30T06:31:27.262Z,1.56
2023-01-30T06:33:57.555Z,1.67
2023-01-30T06:36:28.056Z,1.58
2023-01-30T06:39:01.058Z,1.62
2023-01-30T06:41:31.366Z,1.64
2023-01-30T06:44:01.653Z,1.64
2023-01-30T06:46:31.931Z,1.65
2023-01-30T06:49:02.190Z,1.70
2023-01-30T06:51:32.637Z,1.72
2023-01-30T06:54:05.516Z,1.73
2023-01-30T06:56:36.209Z,1.76
2023-01-30T06:59:06.643Z,1.79
2023-01-30T07:01:37.538Z,1.82
2023-01-30T07:04:08.045Z,1.84
2023-01-30T07:06:40.252Z,1.87
2023-01-30T07:09:13.545Z,1.93
2023-01-30T07:11:43.885Z,1.95
2023-01-30T07:14:14.517Z,1.96
2023-01-30T07:16:45.055Z,2.04
2023-01-30T07:19:15.706Z,2.01
2023-01-30T07:21:46.119Z,2.05
2023-01-30T07:24:19.532Z,2.10
2023-01-30T07:26:51.486Z,2.18
2023-01-30T07:29:22.023Z,2.18
2023-01-30T07:31:52.368Z,2.20
2023-01-30T07:34:22.812Z,2.21
2023-01-30T07:36:53.075Z,2.25
2023-01-30T07:39:26.137Z,2.20
2023-01-30T07:41:57.033Z,2.22
2023-01-30T07:44:28.596Z,2.24
2023-01-30T07:46:58.884Z,2.31
2023-01-30T07:49:29.731Z,2.28
2023-01-30T07:52:00.127Z,2.31
2023-01-30T07:54:33.019Z,2.38
2023-01-30T07:57:03.457Z,2.45
2023-01-30T07:59:33.713Z,2.50
2023-01-30T08:02:04.031Z,2.50
2023-01-30T08:04:34.311Z,2.54
2023-01-30T08:07:04.904Z,2.48
2023-01-30T08:09:37.885Z,2.38
2023-01-30T08:12:08.676Z,2.29
2023-01-30T08:14:39.021Z,2.31
2023-01-30T08:17:09.434Z,2.28
2023-01-30T08:19:39.769Z,2.25
2023-01-30T08:22:10.161Z,2.27
2023-01-30T08:24:43.345Z,2.34
2023-01-30T08:27:13.700Z,2.36
2023-01-30T08:29:44.002Z,2.31
2023-01-30T08:32:15.839Z,2.25
2023-01-30T08:34:46.205Z,2.31
2023-01-30T08:37:16.581Z,2.22
2023-01-30T08:39:49.590Z,2.16
2023-01-30T08:42:19.909Z,2.10
2023-01-30T08:44:50.310Z,2.18
2023-01-30T08:47:20.698Z,2.23
2023-01-30T08:49:51.511Z,2.28
2023-01-30T08:52:21.968Z,2.40
2023-01-30T08:54:54.922Z,2.44
2023-01-30T08:57:25.464Z,2.51
2023-01-30T08:59:55.773Z,2.61
2023-01-30T09:02:26.032Z,2.73
2023-01-30T09:04:56.335Z,2.79
2023-01-30T09:07:28.886Z,2.99
2023-01-30T09:10:01.962Z,2.98
2023-01-30T09:12:32.787Z,3.00
2023-01-30T09:15:03.112Z,3.02
2023-01-30T09:17:33.378Z,3.15
2023-01-30T09:20:03.750Z,3.23
2023-01-30T09:22:34.041Z,3.35
2023-01-30T09:25:08.290Z,3.34
2023-01-30T09:27:38.613Z,3.42
2023-01-30T09:30:11.412Z,3.34
2023-01-30T09:32:41.752Z,3.24
2023-01-30T09:35:12.183Z,3.25
2023-01-30T09:37:49.997Z,3.25
2023-01-30T09:40:27.226Z,3.27
2023-01-30T09:43:26.438Z,3.33
2023-01-30T09:46:20.008Z,3.33
2023-01-30T09:49:02.572Z,3.24
2023-01-30T09:51:50.526Z,3.35
2023-01-30T09:54:25.759Z,3.64
2023-01-30T09:57:21.965Z,3.63
2023-01-30T10:00:01.629Z,3.71
2023-01-30T10:02:51.124Z,3.81
2023-01-30T10:05:21.961Z,3.92
2023-01-30T10:08:09.782Z,3.84
2023-01-30T10:11:00.798Z,3.62
2023-01-30T10:14:12.968Z,3.51
2023-01-30T10:16:54.548Z,3.51
2023-01-30T10:19:53.183Z,3.33
2023-01-30T10:22:42.030Z,3.18
2023-01-30T10:25:28.353Z,3.16
2023-01-30T10:28:04.687Z,3.03
2023-01-30T10:30:37.989Z,3.03
2023-01-30T10:33:15.452Z,3.06
2023-01-30T10:35:47.372Z,2.93
2023-01-30T10:38:23.739Z,2.88
2023-01-30T10:41:04.397Z,2.88
2023-01-30T10:43:41.204Z,2.83
2023-01-30T10:46:29.975Z,2.80
2023-01-30T10:49:04.501Z,2.72
2023-01-30T10:51:50.096Z,2.79
2023-01-30T10:54:28.446Z,2.80
2023-01-30T10:57:10.295Z,2.87
2023-01-30T10:59:56.302Z,2.97
2023-01-30T11:02:43.458Z,2.98
2023-01-30T11:05:20.146Z,3.10
2023-01-30T11:07:51.648Z,3.16
2023-01-30T11:10:23.331Z,3.21
2023-01-30T11:12:55.987Z,3.04
2023-01-30T11:15:27.006Z,2.97
2023-01-30T11:18:50.916Z,2.82
2023-01-30T11:21:06.991Z,2.81
2023-01-30T11:23:39.603Z,2.83
2023-01-30T11:26:11.832Z,2.85
2023-01-30T11:28:48.688Z,2.86
2023-01-30T11:31:39.995Z,2.85
2023-01-30T11:34:21.180Z,2.95
2023-01-30T11:36:52.696Z,2.92
2023-01-30T11:39:31.878Z,2.73
2023-01-30T11:42:05.950Z,2.75
2023-01-30T11:44:39.422Z,2.71
2023-01-30T11:47:15.621Z,2.73
2023-01-30T11:50:07.878Z,2.72
2023-01-30T11:52:45.220Z,2.80
2023-01-30T11:55:19.681Z,2.73
2023-01-30T11:57:55.717Z,2.63
2023-01-30T12:00:30.527Z,2.56
2023-01-30T12:03:08.667Z,2.56
2023-01-30T12:05:45.114Z,2.60
2023-01-30T12:08:41.073Z,2.67
2023-01-30T12:11:32.033Z,2.87
2023-01-30T12:14:25.624Z,2.96
2023-01-30T12:17:14.206Z,3.00
2023-01-30T12:19:58.973Z,3.02
2023-01-30T12:22:41.035Z,3.00
2023-01-30T12:25:18.957Z,3.04
2023-01-30T12:33:10.076Z,3.41
2023-01-30T12:35:59.241Z,3.44
2023-01-30T12:38:59.120Z,3.57
2023-01-30T12:41:47.333Z,3.51
2023-01-30T12:44:40.301Z,3.50
2023-01-30T12:47:34.679Z,3.60
2023-01-30T12:50:23.951Z,3.66
2023-01-30T12:53:27.764Z,3.66
2023-01-30T12:56:22.779Z,3.71
2023-01-30T12:59:00.203Z,3.63
2023-01-30T13:01:38.319Z,3.60
2023-01-30T13:04:19.278Z,3.65
2023-01-30T13:07:09.603Z,3.70
2023-01-30T13:09:57.602Z,3.72
2023-01-30T13:12:41.321Z,3.69
2023-01-30T13:15:25.051Z,3.71
2023-01-30T13:18:07.691Z,3.72
2023-01-30T13:21:00.357Z,3.83
2023-01-30T13:23:44.192Z,3.84
2023-01-30T13:26:19.734Z,3.74
2023-01-30T13:28:59.140Z,3.71
2023-01-30T13:31:35.999Z,3.68
2023-01-30T13:34:10.515Z,3.74
2023-01-30T13:36:48.951Z,3.76
2023-01-30T13:39:27.545Z,3.74
2023-01-30T13:42:00.912Z,3.64
2023-01-30T13:44:39.414Z,3.63
2023-01-30T13:47:28.163Z,3.63
2023-01-30T13:50:18.564Z,3.67
2023-01-30T13:52:56.167Z,3.67
2023-01-30T13:55:34.830Z,3.65
2023-01-30T13:58:17.799Z,3.66
2023-01-30T14:00:59.073Z,3.72
2023-01-30T14:03:33.349Z,3.76
2023-01-30T14:06:41.495Z,3.79
2023-01-30T14:09:28.425Z,3.81
2023-01-30T14:12:06.938Z,3.79
2023-01-30T14:14:40.824Z,3.83
2023-01-30T14:17:16.378Z,3.86
2023-01-30T14:19:58.484Z,3.88
2023-01-30T14:22:36.980Z,3.85
2023-01-30T14:25:52.413Z,3.86
2023-01-30T14:28:53.696Z,3.97
2023-01-30T14:31:54.457Z,3.97
2023-01-30T14:35:22.903Z,4.00
2023-01-30T14:38:10.003Z,4.02
2023-01-30T14:40:51.672Z,4.04
2023-01-30T14:43:55.200Z,4.07
2023-01-30T14:46:55.760Z,4.12
2023-01-30T14:49:46.647Z,4.07
2023-01-30T14:52:39.458Z,4.06
2023-01-30T14:55:22.363Z,4.04
2023-01-30T14:57:59.091Z,3.99
2023-01-30T15:00:34.638Z,4.00
2023-01-30T15:03:11.559Z,3.93
2023-01-30T15:05:47.329Z,3.93
2023-01-30T15:08:25.213Z,3.90
2023-01-30T15:11:15.595Z,3.88
2023-01-30T15:13:58.016Z,3.84
2023-01-30T15:17:03.061Z,3.88
2023-01-30T15:20:04.033Z,3.88
2023-01-30T15:22:47.626Z,3.87
2023-01-30T15:25:36.596Z,3.95
2023-01-30T15:28:23.712Z,4.01
2023-01-30T15:31:12.655Z,4.03
2023-01-30T15:33:51.411Z,4.13
2023-01-30T15:36:30.289Z,4.19
2023-01-30T15:39:06.495Z,4.24
2023-01-30T15:41:43.283Z,4.26
2023-01-30T15:44:45.522Z,4.30
2023-01-30T15:47:53.829Z,4.30
2023-01-30T15:50:24.599Z,4.26
2023-01-30T15:52:56.690Z,4.31
2023-01-30T15:55:30.850Z,4.42
2023-01-30T15:58:08.309Z,4.47
2023-01-30T16:00:44.204Z,4.56
2023-01-30T16:03:20.255Z,4.56
2023-01-30T16:05:52.263Z,4.58
2023-01-30T16:08:26.016Z,4.57
2023-01-30T16:10:56.736Z,4.61
2023-01-30T16:13:33.407Z,4.58
2023-01-30T16:16:12.774Z,4.60
2023-01-30T16:18:50.692Z,4.63
2023-01-30T16:21:24.850Z,4.62
2023-01-30T16:23:59.409Z,4.68
2023-01-30T16:26:30.306Z,4.63
2023-01-30T16:29:09.070Z,4.61
2023-01-30T16:31:42.630Z,4.66
2023-01-30T16:34:31.577Z,4.62
2023-01-30T16:37:08.627Z,4.59
2023-01-30T16:39:40.848Z,4.59
2023-01-30T16:42:28.353Z,4.53
2023-01-30T16:45:39.051Z,4.58
2023-01-30T16:48:33.590Z,4.55
2023-01-30T16:51:27.192Z,4.57
2023-01-30T16:54:04.993Z,4.61
2023-01-30T16:56:37.243Z,4.54
2023-01-30T16:59:07.765Z,4.54
2023-01-30T17:01:43.573Z,4.65
2023-01-30T17:04:22.836Z,4.62
2023-01-30T17:07:00.213Z,4.63
2023-01-30T17:09:47.537Z,4.68
2023-01-30T17:12:40.363Z,4.72
2023-01-30T17:15:36.495Z,4.76
2023-01-30T17:18:13.143Z,4.76
2023-01-30T17:20:51.370Z,4.77
2023-01-30T17:23:24.063Z,4.74
2023-01-30T17:25:54.395Z,4.71
2023-01-30T17:28:24.693Z,4.70
2023-01-30T17:30:55.280Z,4.74
2023-01-30T17:33:28.747Z,4.71
2023-01-30T17:35:59.260Z,4.68
2023-01-30T17:38:29.761Z,4.62
2023-01-30T17:41:02.191Z,4.62
2023-01-30T17:43:32.519Z,4.56
2023-01-30T17:46:04.083Z,4.58
2023-01-30T17:48:37.021Z,4.60
2023-01-30T17:51:07.968Z,4.57
2023-01-30T17:53:38.399Z,4.55
2023-01-30T17:56:17.014Z,4.53
2023-01-30T17:58:47.317Z,4.57
2023-01-30T18:01:19.243Z,4.57
2023-01-30T18:03:52.302Z,4.61
2023-01-30T18:06:22.740Z,4.59
2023-01-30T18:08:53.111Z,4.61
2023-01-30T18:11:23.593Z,4.59
2023-01-30T18:13:54.096Z,4.58
2023-01-30T18:16:31.031Z,4.58
2023-01-30T18:19:06.754Z,4.62
2023-01-30T18:21:40.035Z,4.59
2023-01-30T18:24:11.641Z,4.60
2023-01-30T18:26:42.249Z,4.62
2023-01-30T18:29:13.209Z,4.63
2023-01-30T18:31:44.278Z,4.64
2023-01-30T18:34:17.584Z,4.65
2023-01-30T18:36:48.279Z,4.58
2023-01-30T18:39:18.824Z,4.57
2023-01-30T18:41:49.221Z,4.56
2023-01-30T18:44:20.063Z,4.61
2023-01-30T18:46:52.574Z,4.60
2023-01-30T18:49:25.503Z,4.60
2023-01-30T18:51:55.883Z,4.63
2023-01-30T18:54:26.311Z,4.64
2023-01-30T18:56:57.229Z,4.66
2023-01-30T18:59:27.945Z,4.60
2023-01-30T19:01:58.279Z,4.61
2023-01-30T19:04:31.183Z,4.67
2023-01-30T19:07:01.644Z,4.57
2023-01-30T19:09:32.064Z,4.61
2023-01-30T19:12:14.745Z,4.62
2023-01-30T19:14:45.099Z,4.60
2023-01-30T19:17:16.523Z,4.61
2023-01-30T19:19:49.420Z,4.61
2023-01-30T19:22:19.779Z,4.65
2023-01-30T19:24:50.106Z,4.65
2023-01-30T19:27:21.097Z,4.61
2023-01-30T19:29:51.499Z,4.64
2023-01-30T19:32:22.294Z,4.64
2023-01-30T19:34:55.359Z,4.67
2023-01-30T19:37:25.707Z,4.62
2023-01-30T19:39:55.992Z,4.61
2023-01-30T19:42:26.352Z,4.60
2023-01-30T19:44:57.093Z,4.58
2023-01-30T19:47:27.619Z,4.61
2023-01-30T19:50:00.622Z,4.58
2023-01-30T19:52:30.983Z,4.60
2023-01-30T19:55:01.362Z,4.61
2023-01-30T19:57:31.668Z,4.60
2023-01-30T20:00:01.993Z,4.63
2023-01-30T20:02:34.892Z,4.58
2023-01-30T20:05:09.082Z,4.56
2023-01-30T20:07:40.005Z,4.59
2023-01-30T20:10:11.952Z,4.56
2023-01-30T20:12:42.416Z,4.57
2023-01-30T20:15:14.161Z,4.51
2023-01-30T20:17:44.470Z,4.47
2023-01-30T20:20:18.181Z,4.56
2023-01-30T20:22:48.707Z,4.56
2023-01-30T20:25:19.588Z,4.43
2023-01-30T20:27:49.979Z,4.38
2023-01-30T20:30:21.570Z,4.35
2023-01-30T20:32:53.904Z,4.33
2023-01-30T20:35:26.889Z,4.31
2023-01-30T20:37:57.176Z,4.33
2023-01-30T20:40:27.551Z,4.36
2023-01-30T20:42:57.956Z,4.35
2023-01-30T20:45:28.317Z,4.39
2023-01-30T20:47:58.705Z,4.40
2023-01-30T20:50:31.650Z,4.45
2023-01-30T20:53:02.037Z,4.43
2023-01-30T20:55:32.318Z,4.52
2023-01-30T20:58:02.818Z,4.50
2023-01-30T21:00:33.147Z,4.57
2023-01-30T21:03:03.513Z,4.64
2023-01-30T21:05:37.255Z,4.61
2023-01-30T21:08:08.181Z,4.58
2023-01-30T21:10:40.520Z,4.48
2023-01-30T21:13:10.856Z,4.52
2023-01-30T21:15:41.155Z,4.50
2023-01-30T21:18:11.476Z,4.52
2023-01-30T21:20:51.549Z,4.58
2023-01-30T21:23:21.871Z,4.52
2023-01-30T21:25:52.122Z,4.38
2023-01-30T21:28:22.497Z,4.40
2023-01-30T21:30:52.926Z,4.48
2023-01-30T21:33:23.345Z,4.46
2023-01-30T21:35:56.251Z,4.41
2023-01-30T21:38:39.170Z,4.46
2023-01-30T21:41:23.180Z,4.40
2023-01-30T21:43:53.513Z,4.40
2023-01-30T21:46:23.907Z,4.48
2023-01-30T21:48:54.309Z,4.47
2023-01-30T21:51:27.415Z,4.52
2023-01-30T21:54:00.182Z,4.49
2023-01-30T21:56:30.638Z,4.48
2023-01-30T21:59:02.499Z,4.44
2023-01-30T22:01:33.355Z,4.44
2023-01-30T22:04:05.663Z,4.41
2023-01-30T22:06:39.907Z,4.39
2023-01-30T22:09:11.161Z,4.35
2023-01-30T22:11:41.266Z,4.30
2023-01-30T22:14:13.384Z,4.32
2023-01-30T22:16:45.004Z,4.35
2023-01-30T22:19:15.327Z,4.27
2023-01-30T22:21:48.286Z,4.32
2023-01-30T22:24:18.686Z,4.23
2023-01-30T22:26:49.252Z,4.20
2023-01-30T22:29:22.442Z,4.20
2023-01-30T22:31:52.792Z,4.02
2023-01-30T22:34:23.542Z,3.98
2023-01-30T22:36:56.601Z,3.89
2023-01-30T22:39:26.891Z,3.71
2023-01-30T22:41:57.256Z,3.66
2023-01-30T22:44:27.648Z,3.63
2023-01-30T22:46:58.239Z,3.60
2023-01-30T22:49:28.697Z,3.65
2023-01-30T22:52:01.873Z,3.68
2023-01-30T22:54:32.371Z,3.74
2023-01-30T22:57:04.806Z,3.71
2023-01-30T22:59:35.697Z,3.66
2023-01-30T23:02:10.326Z,3.68
2023-01-30T23:04:40.689Z,3.71
2023-01-30T23:07:16.291Z,3.71
2023-01-30T23:09:46.828Z,3.73
2023-01-30T23:12:29.596Z,3.78
2023-01-30T23:14:59.933Z,3.82
2023-01-30T23:17:45.808Z,3.81
2023-01-30T23:20:16.762Z,3.78
2023-01-30T23:22:54.455Z,3.79
2023-01-30T23:25:25.129Z,3.81
2023-01-30T23:27:55.502Z,3.67
2023-01-30T23:30:25.764Z,3.71
2023-01-30T23:32:56.125Z,3.82
2023-01-30T23:35:26.438Z,3.93
2023-01-30T23:38:11.715Z,3.89
2023-01-30T23:40:42.019Z,3.97
2023-01-30T23:43:12.745Z,3.95
2023-01-30T23:45:43.190Z,3.99
2023-01-30T23:48:13.788Z,4.02
2023-01-30T23:50:44.601Z,3.97
2023-01-30T23:53:17.580Z,3.89
2023-01-30T23:55:54.677Z,3.92
2023-01-30T23:58:25.263Z,3.91
